Ratece, Slovenia

2:28 PM CEST on September 22, 2014 (GMT +0200)
Jesenice | Change Station
CLOSE
Current Station
Personal Weather Station
Location: Jesenice,
Elevation: 1939 ft
Nearby Weather Stations

Elev 1939 ft 46.44 °N, 14.06 °E | Updated 51 seconds ago

Scattered Clouds
Scattered Clouds
71.9 °F
Feels Like 77 °F
N
2.0
Wind Variable Wind from South
Gusts 5.8 mph

Today
High -- | Low -- °F
--% Chance of Precip.
Yesterday
High -- | Low -- °F
Precip. -- in
6:51 AM 7:03 PM
Waning Crescent, 3% visible
Pressure 29.86 in
Visibility 6.2 miles
Clouds Few 5000 ft
Scattered Clouds 7000 ft
Heat Index 77 °F
Dew Point 46 °F
Humidity 39%
Rainfall -999.00 in
Snow Depth Not available.
UV 4 out of 12
Pollen Not available.
Air Quality Not available.
Flu Activity Not available.
METAR LOWK 221220Z 01007KT 340V040 9999 FEW050 SCT070 18/04 Q1011 NOSIG

More Conditions Fewer Conditions

Pressure 29.86 in
Visibility 6.2 miles
Clouds Few 5000 ft
Scattered Clouds 7000 ft
Heat Index 77 °F
Dew Point 46 °F
Humidity 39%
Rainfall -999.00 in
Snow Depth Not available.
UV 4 out of 12
Pollen Not available.
Air Quality Not available.
Flu Activity Not available.
METAR LOWK 221220Z 01007KT 340V040 9999 FEW050 SCT070 18/04 Q1011 NOSIG

More Conditions Fewer Conditions

10-Day Weather Forecast

Almanac

Astronomy

Sep. 22, 2014 Rise Set
Actual Time 6:51 AM CEST 7:03 PM CEST
Civil Twilight 6:21 AM CEST 7:33 PM CEST
Nautical Twilight 5:46 AM CEST 8:08 PM CEST
Astronomical Twilight 5:09 AM CEST 8:45 PM CEST
Moon 4:59 AM CEST 6:04 PM CEST
Length of Visible Light 13h 11m
Length of Day
12h 11m
Tomorrow will be 3m 16s shorter.
Waning Crescent, 3% of the Moon is Illuminated
Today
Waning Crescent
Sep 24
New
Oct 1
First Quarter
Oct 8
Full
Oct 15
Last Quarter

Yesterday's Extremes

Country Highs Country Lows

Community

WunderPhotos

Upload Photos

1,755,419 photos uploaded!

WunderBlogs® & News

Nearby

Snow Depth

Not available.

Earthquake Activity

City Distance Mag. Time & Date
No recent earthquake activity has been reported nearby.
Minimum magnitude displayed is 2.5.

Coastal Water Temperatures

Place Temperature
No Stations Reporting

Nearby Weather Stations